createdAt,value
2019-06-26T00:00:19.567Z,732.00
2019-06-26T00:01:20.370Z,730.00
2019-06-26T00:02:20.704Z,732.00
2019-06-26T00:03:21.595Z,734.00
2019-06-26T00:03:30.137Z,733.00
2019-06-26T00:04:31.304Z,732.00
2019-06-26T00:05:31.396Z,732.00
2019-06-26T00:06:31.994Z,732.00
2019-06-26T00:07:32.317Z,732.00
2019-06-26T00:08:33.020Z,729.00
2019-06-26T00:09:33.191Z,730.00
2019-06-26T00:10:34.008Z,729.00
2019-06-26T00:11:34.219Z,729.00
2019-06-26T00:12:34.364Z,729.00
2019-06-26T00:13:35.240Z,729.00
2019-06-26T00:14:38.730Z,729.00
2019-06-26T00:15:36.015Z,729.00
2019-06-26T00:16:37.084Z,729.00
2019-06-26T00:17:38.009Z,728.00
2019-06-26T00:18:38.938Z,729.00
2019-06-26T00:19:38.980Z,729.00
2019-06-26T00:20:39.772Z,729.00
2019-06-26T00:21:40.706Z,729.00
2019-06-26T00:22:40.743Z,729.00
2019-06-26T00:23:39.957Z,729.00
2019-06-26T00:24:41.930Z,732.00
2019-06-26T00:25:42.018Z,730.00
2019-06-26T00:26:42.337Z,732.00
2019-06-26T00:27:43.018Z,732.00
2019-06-26T00:28:43.105Z,732.00
2019-06-26T00:29:44.135Z,733.00
2019-06-26T00:30:44.722Z,733.00
2019-06-26T00:31:44.313Z,734.00
2019-06-26T00:32:46.194Z,734.00
2019-06-26T00:33:46.274Z,735.00
2019-06-26T00:34:47.073Z,733.00
2019-06-26T00:35:47.708Z,735.00
2019-06-26T00:36:48.621Z,735.00
2019-06-26T00:37:48.805Z,735.00
2019-06-26T00:38:47.971Z,735.00
2019-06-26T00:39:49.325Z,735.00
2019-06-26T00:40:50.294Z,736.00
2019-06-26T00:41:50.535Z,735.00
2019-06-26T00:42:50.645Z,735.00
2019-06-26T00:43:50.438Z,736.00
2019-06-26T00:44:52.109Z,735.00
2019-06-26T00:45:53.078Z,736.00
2019-06-26T00:46:53.194Z,736.00
2019-06-26T00:47:53.324Z,738.00
2019-06-26T00:48:54.286Z,736.00
2019-06-26T00:49:54.381Z,738.00
2019-06-26T00:50:02.901Z,737.00
2019-06-26T00:51:04.776Z,738.00
2019-06-26T00:52:05.658Z,738.00
2019-06-26T00:53:05.893Z,738.00
2019-06-26T00:54:05.989Z,737.00
2019-06-26T00:55:05.800Z,736.00
2019-06-26T00:56:07.671Z,739.00
2019-06-26T00:57:08.429Z,738.00
2019-06-26T00:58:08.491Z,738.00
2019-06-26T00:59:09.425Z,739.00
2019-06-26T01:00:09.436Z,739.00
2019-06-26T01:01:10.045Z,738.00
2019-06-26T01:02:10.713Z,736.00
2019-06-26T01:03:10.889Z,736.00
2019-06-26T01:04:11.640Z,736.00
2019-06-26T01:05:12.370Z,735.00
2019-06-26T01:06:13.340Z,735.00
2019-06-26T01:07:13.884Z,735.00
2019-06-26T01:08:14.447Z,735.00
2019-06-26T01:09:14.907Z,735.00
2019-06-26T01:10:14.923Z,734.00
2019-06-26T01:11:15.826Z,734.00
2019-06-26T01:12:16.543Z,733.00
2019-06-26T01:13:17.480Z,735.00
2019-06-26T01:14:17.690Z,734.00
2019-06-26T01:15:18.522Z,734.00
2019-06-26T01:16:18.626Z,734.00
2019-06-26T01:17:18.499Z,734.00
2019-06-26T01:18:20.405Z,734.00
2019-06-26T01:19:20.469Z,734.00
2019-06-26T01:20:21.349Z,732.00
2019-06-26T01:21:21.873Z,732.00
2019-06-26T01:22:22.725Z,733.00
2019-06-26T01:23:22.913Z,732.00
2019-06-26T01:24:23.736Z,732.00
2019-06-26T01:25:23.801Z,735.00
2019-06-26T01:26:24.762Z,735.00
2019-06-26T01:27:25.648Z,734.00
2019-06-26T01:28:26.638Z,734.00
2019-06-26T01:29:26.871Z,734.00
2019-06-26T01:30:27.257Z,734.00
2019-06-26T01:31:27.522Z,734.00
2019-06-26T01:32:27.306Z,734.00
2019-06-26T01:33:29.150Z,735.00
2019-06-26T01:34:29.967Z,735.00
2019-06-26T01:34:38.615Z,734.00
2019-06-26T01:35:38.763Z,734.00
2019-06-26T01:36:39.774Z,733.00
2019-06-26T01:37:40.065Z,732.00
2019-06-26T01:38:41.002Z,732.00
2019-06-26T01:39:41.888Z,732.00
2019-06-26T01:40:42.900Z,733.00
2019-06-26T01:41:43.476Z,732.00
2019-06-26T01:42:43.531Z,733.00
2019-06-26T01:43:43.578Z,734.00
2019-06-26T01:44:44.335Z,734.00
2019-06-26T01:45:45.206Z,734.00
2019-06-26T01:46:45.253Z,733.00
2019-06-26T01:47:45.302Z,732.00
2019-06-26T01:48:45.892Z,732.00
2019-06-26T01:49:46.644Z,733.00
2019-06-26T01:50:47.591Z,732.00
2019-06-26T01:51:48.370Z,733.00
2019-06-26T01:52:49.291Z,734.00
2019-06-26T01:53:50.297Z,735.00
2019-06-26T01:54:50.493Z,734.00
2019-06-26T01:55:50.267Z,735.00
2019-06-26T01:56:51.793Z,735.00
2019-06-26T01:57:52.708Z,735.00
2019-06-26T01:58:52.807Z,734.00
2019-06-26T01:59:53.232Z,734.00
2019-06-26T02:00:54.198Z,734.00
2019-06-26T02:01:54.361Z,734.00
2019-06-26T02:02:55.243Z,732.00
2019-06-26T02:03:55.249Z,734.00
2019-06-26T02:04:56.071Z,734.00
2019-06-26T02:05:56.244Z,734.00
2019-06-26T02:06:57.244Z,734.00
2019-06-26T02:07:57.360Z,735.00
2019-06-26T02:08:58.220Z,735.00
2019-06-26T02:09:58.289Z,734.00
2019-06-26T02:10:58.305Z,734.00
2019-06-26T02:12:00.548Z,738.00
2019-06-26T02:12:57.624Z,736.00
2019-06-26T02:13:58.348Z,736.00
2019-06-26T02:15:00.098Z,735.00
2019-06-26T02:16:00.939Z,736.00
2019-06-26T02:17:01.243Z,736.00
2019-06-26T02:18:02.142Z,736.00
2019-06-26T02:19:03.133Z,736.00
2019-06-26T02:20:04.102Z,735.00
2019-06-26T02:21:04.826Z,736.00
2019-06-26T02:21:13.394Z,736.00
2019-06-26T02:22:15.277Z,736.00
2019-06-26T02:23:16.042Z,736.00
2019-06-26T02:24:16.970Z,736.00
2019-06-26T02:25:17.448Z,737.00
2019-06-26T02:26:17.911Z,738.00
2019-06-26T02:27:18.301Z,738.00
2019-06-26T02:28:19.188Z,739.00
2019-06-26T02:29:19.708Z,739.00
2019-06-26T02:30:20.633Z,738.00
2019-06-26T02:31:21.565Z,739.00
2019-06-26T02:32:21.640Z,739.00
2019-06-26T02:33:21.904Z,739.00
2019-06-26T02:34:22.640Z,738.00
2019-06-26T02:35:23.615Z,738.00
2019-06-26T02:36:24.281Z,736.00
2019-06-26T02:37:25.230Z,737.00
2019-06-26T02:38:25.288Z,737.00
2019-06-26T02:39:26.255Z,736.00
2019-06-26T02:40:26.515Z,736.00
2019-06-26T02:41:27.202Z,736.00
2019-06-26T02:42:27.407Z,739.00
2019-06-26T02:43:27.405Z,739.00
2019-06-26T02:44:28.155Z,739.00
2019-06-26T02:45:28.833Z,739.00
2019-06-26T02:46:27.910Z,739.00
2019-06-26T02:47:29.035Z,739.00
2019-06-26T02:48:29.007Z,740.00
2019-06-26T02:49:29.102Z,739.00
2019-06-26T02:50:29.211Z,741.00
2019-06-26T02:51:29.283Z,744.00
2019-06-26T02:52:30.239Z,745.00
2019-06-26T02:53:30.288Z,746.00
2019-06-26T02:54:30.447Z,745.00
2019-06-26T02:55:30.845Z,744.00
2019-06-26T02:56:31.274Z,744.00
2019-06-26T02:57:31.697Z,741.00
2019-06-26T02:58:32.450Z,745.00
2019-06-26T02:59:33.341Z,745.00
2019-06-26T03:00:34.060Z,745.00
2019-06-26T03:01:35.010Z,744.00
2019-06-26T03:02:36.025Z,741.00
2019-06-26T03:03:36.305Z,741.00
2019-06-26T03:03:44.875Z,740.00
2019-06-26T03:04:46.043Z,744.00
2019-06-26T03:05:46.984Z,741.00
2019-06-26T03:06:47.819Z,741.00
2019-06-26T03:07:48.649Z,740.00
2019-06-26T03:08:48.628Z,741.00
2019-06-26T03:09:49.069Z,741.00
2019-06-26T03:10:49.366Z,741.00
2019-06-26T03:11:49.647Z,740.00
2019-06-26T03:12:49.687Z,740.00
2019-06-26T03:13:49.917Z,741.00
2019-06-26T03:14:50.803Z,742.00
2019-06-26T03:15:51.041Z,741.00
2019-06-26T03:16:51.170Z,744.00
2019-06-26T03:17:55.591Z,741.00
2019-06-26T03:18:52.066Z,741.00
2019-06-26T03:19:53.886Z,741.00
2019-06-26T03:20:53.996Z,740.00
2019-06-26T03:21:54.974Z,740.00
2019-06-26T03:22:55.872Z,740.00
2019-06-26T03:23:56.731Z,739.00
2019-06-26T03:24:57.074Z,742.00
2019-06-26T03:25:57.365Z,744.00
2019-06-26T03:26:57.511Z,744.00
2019-06-26T03:27:57.084Z,744.00
2019-06-26T03:28:58.264Z,744.00
2019-06-26T03:29:58.481Z,745.00
2019-06-26T03:30:57.888Z,744.00
2019-06-26T03:31:58.887Z,742.00
2019-06-26T03:32:58.899Z,744.00
2019-06-26T03:33:59.887Z,741.00
2019-06-26T03:35:00.615Z,740.00
2019-06-26T03:36:00.729Z,741.00
2019-06-26T03:37:00.733Z,741.00
2019-06-26T03:37:59.745Z,740.00
2019-06-26T03:39:01.575Z,740.00
2019-06-26T03:40:02.252Z,737.00
2019-06-26T03:41:03.214Z,739.00
2019-06-26T03:42:03.823Z,739.00
2019-06-26T03:43:03.867Z,739.00
2019-06-26T03:44:04.655Z,739.00
2019-06-26T03:45:05.603Z,738.00
2019-06-26T03:46:06.365Z,737.00
2019-06-26T03:47:06.747Z,737.00
2019-06-26T03:48:07.606Z,739.00
2019-06-26T03:49:08.381Z,739.00
2019-06-26T03:49:16.907Z,738.00
2019-06-26T03:50:18.940Z,739.00
2019-06-26T03:51:19.353Z,738.00
2019-06-26T03:52:20.170Z,739.00
2019-06-26T03:53:20.844Z,739.00
2019-06-26T03:54:21.442Z,739.00
2019-06-26T03:55:22.400Z,739.00
2019-06-26T03:56:23.335Z,739.00
2019-06-26T03:57:24.287Z,741.00
2019-06-26T03:58:24.965Z,741.00
2019-06-26T03:59:25.174Z,740.00
2019-06-26T04:00:26.194Z,740.00
2019-06-26T04:01:26.932Z,740.00
2019-06-26T04:02:27.117Z,740.00
2019-06-26T04:03:28.031Z,742.00
2019-06-26T04:04:28.626Z,742.00
2019-06-26T04:05:28.688Z,744.00
2019-06-26T04:06:28.925Z,744.00
2019-06-26T04:07:29.054Z,745.00
2019-06-26T04:08:29.756Z,741.00
2019-06-26T04:09:28.990Z,744.00
2019-06-26T04:10:30.055Z,744.00
2019-06-26T04:11:30.833Z,742.00
2019-06-26T04:12:31.139Z,746.00
2019-06-26T04:13:31.249Z,746.00
2019-06-26T04:14:32.222Z,745.00
2019-06-26T04:15:42.077Z,745.00
2019-06-26T04:16:32.909Z,746.00
2019-06-26T04:17:34.121Z,745.00
2019-06-26T04:18:34.886Z,745.00
2019-06-26T04:19:35.765Z,746.00
2019-06-26T04:20:35.848Z,745.00
2019-06-26T04:21:35.950Z,746.00
2019-06-26T04:22:36.844Z,745.00
2019-06-26T04:23:37.568Z,745.00
2019-06-26T04:24:38.534Z,746.00
2019-06-26T04:25:38.980Z,747.00
2019-06-26T04:26:39.369Z,746.00
2019-06-26T04:27:40.106Z,746.00
2019-06-26T04:28:39.943Z,745.00
2019-06-26T04:29:41.823Z,744.00
2019-06-26T04:30:41.992Z,744.00
2019-06-26T04:31:42.870Z,744.00
2019-06-26T04:32:43.671Z,744.00
2019-06-26T04:32:52.240Z,744.00
2019-06-26T04:33:53.920Z,741.00
2019-06-26T04:34:54.731Z,744.00
2019-06-26T04:35:54.973Z,744.00
2019-06-26T04:36:55.785Z,744.00
2019-06-26T04:37:56.611Z,741.00
2019-06-26T04:38:57.153Z,741.00
2019-06-26T04:39:58.150Z,740.00
2019-06-26T04:40:58.269Z,740.00
2019-06-26T04:41:59.213Z,739.00
2019-06-26T04:43:00.067Z,738.00
2019-06-26T04:44:00.181Z,739.00
2019-06-26T04:45:00.979Z,740.00
2019-06-26T04:46:02.012Z,741.00
2019-06-26T04:47:01.615Z,740.00
2019-06-26T04:48:02.202Z,741.00
2019-06-26T04:49:04.169Z,740.00
2019-06-26T04:50:05.167Z,741.00
2019-06-26T04:51:05.333Z,744.00
2019-06-26T04:52:06.104Z,742.00
2019-06-26T04:53:06.546Z,740.00
2019-06-26T04:54:05.746Z,740.00
2019-06-26T04:55:07.163Z,739.00
2019-06-26T04:56:06.997Z,740.00
2019-06-26T04:57:08.600Z,741.00
2019-06-26T04:58:09.045Z,740.00
2019-06-26T04:59:08.325Z,740.00
2019-06-26T05:00:09.361Z,740.00
2019-06-26T05:01:10.029Z,741.00
2019-06-26T05:02:09.071Z,740.00
2019-06-26T05:03:09.898Z,738.00
2019-06-26T05:04:11.787Z,736.00
2019-06-26T05:05:12.676Z,735.00
2019-06-26T05:06:13.649Z,732.00
2019-06-26T05:07:14.533Z,729.00
2019-06-26T05:08:15.545Z,728.00
2019-06-26T05:09:14.825Z,727.00
2019-06-26T05:10:16.179Z,725.00
2019-06-26T05:11:16.565Z,724.00
2019-06-26T05:12:16.688Z,727.00
2019-06-26T05:13:17.705Z,727.00
2019-06-26T05:14:18.635Z,726.00
2019-06-26T05:15:19.279Z,725.00
2019-06-26T05:16:20.599Z,721.00
2019-06-26T05:17:19.663Z,722.00
2019-06-26T05:18:20.911Z,722.00
2019-06-26T05:19:21.263Z,721.00
2019-06-26T05:20:21.435Z,721.00
2019-06-26T05:21:22.320Z,722.00
2019-06-26T05:22:22.353Z,722.00
2019-06-26T05:23:23.066Z,721.00
2019-06-26T05:23:31.633Z,722.00
2019-06-26T05:24:33.514Z,720.00
2019-06-26T05:25:33.573Z,722.00
2019-06-26T05:26:34.515Z,720.00
2019-06-26T05:27:35.122Z,720.00
2019-06-26T05:28:36.094Z,717.00
2019-06-26T05:29:36.835Z,718.00
2019-06-26T05:30:36.737Z,715.00
2019-06-26T05:31:38.005Z,713.00
2019-06-26T05:32:38.748Z,712.00
2019-06-26T05:33:39.524Z,712.00
2019-06-26T05:34:39.575Z,712.00
2019-06-26T05:35:40.036Z,710.00
2019-06-26T05:36:40.892Z,709.00
2019-06-26T05:37:40.919Z,708.00
2019-06-26T05:38:41.006Z,706.00
2019-06-26T05:39:41.375Z,705.00
2019-06-26T05:40:42.347Z,703.00
2019-06-26T05:41:43.006Z,703.00
2019-06-26T05:42:43.567Z,705.00
2019-06-26T05:43:44.433Z,703.00
2019-06-26T05:44:44.692Z,702.00
2019-06-26T05:45:45.252Z,705.00
2019-06-26T05:46:45.726Z,708.00
2019-06-26T05:47:46.435Z,709.00
2019-06-26T05:48:47.342Z,706.00
2019-06-26T05:49:47.899Z,703.00
2019-06-26T05:50:48.746Z,702.00
2019-06-26T05:51:49.707Z,703.00
2019-06-26T05:52:50.601Z,701.00
2019-06-26T05:53:50.631Z,697.00
2019-06-26T05:54:50.648Z,696.00
2019-06-26T05:55:51.056Z,694.00
2019-06-26T05:56:52.061Z,694.00
2019-06-26T05:57:51.666Z,694.00
2019-06-26T05:58:52.798Z,693.00
2019-06-26T05:59:53.691Z,692.00
2019-06-26T06:00:53.752Z,693.00
2019-06-26T06:01:54.454Z,693.00
2019-06-26T06:02:55.418Z,693.00
2019-06-26T06:03:56.085Z,692.00
2019-06-26T06:04:56.966Z,693.00
2019-06-26T06:05:57.785Z,692.00
2019-06-26T06:06:57.822Z,691.00
2019-06-26T06:07:58.057Z,690.00
2019-06-26T06:08:06.600Z,691.00
2019-06-26T06:09:07.801Z,693.00
2019-06-26T06:10:07.880Z,694.00
2019-06-26T06:11:07.874Z,693.00
2019-06-26T06:12:08.504Z,692.00
2019-06-26T06:13:08.514Z,691.00
2019-06-26T06:14:08.759Z,689.00
2019-06-26T06:15:08.860Z,688.00
2019-06-26T06:16:09.696Z,686.00
2019-06-26T06:17:10.067Z,684.00
2019-06-26T06:18:10.244Z,681.00
2019-06-26T06:19:11.165Z,682.00
2019-06-26T06:20:11.622Z,682.00
2019-06-26T06:21:11.914Z,681.00
2019-06-26T06:22:12.818Z,679.00
2019-06-26T06:23:13.682Z,678.00
2019-06-26T06:24:14.085Z,676.00
2019-06-26T06:25:13.283Z,675.00
2019-06-26T06:26:14.193Z,674.00
2019-06-26T06:27:15.105Z,672.00
2019-06-26T06:28:16.902Z,669.00
2019-06-26T06:29:17.306Z,668.00
2019-06-26T06:30:18.188Z,667.00
2019-06-26T06:31:17.152Z,665.00
2019-06-26T06:32:18.982Z,665.00
2019-06-26T06:33:19.659Z,665.00
2019-06-26T06:34:20.518Z,663.00
2019-06-26T06:35:20.901Z,663.00
2019-06-26T06:36:21.108Z,662.00
2019-06-26T06:37:21.380Z,662.00
2019-06-26T06:38:22.081Z,662.00
2019-06-26T06:39:22.464Z,662.00
2019-06-26T06:40:23.480Z,661.00
2019-06-26T06:41:24.423Z,658.00
2019-06-26T06:42:24.295Z,657.00
2019-06-26T06:43:25.578Z,656.00
2019-06-26T06:44:26.500Z,655.00
2019-06-26T06:45:26.649Z,655.00
2019-06-26T06:46:27.459Z,655.00
2019-06-26T06:47:27.851Z,655.00
2019-06-26T06:48:28.738Z,654.00
2019-06-26T06:49:28.903Z,654.00
2019-06-26T06:50:29.542Z,653.00
2019-06-26T06:51:30.423Z,653.00
2019-06-26T06:52:30.921Z,653.00
2019-06-26T06:53:31.926Z,654.00
2019-06-26T06:53:40.444Z,654.00
2019-06-26T06:54:41.478Z,655.00
2019-06-26T06:55:41.594Z,655.00
2019-06-26T06:56:42.452Z,655.00
2019-06-26T06:57:42.616Z,655.00
2019-06-26T06:58:42.899Z,656.00
2019-06-26T06:59:41.995Z,657.00
2019-06-26T07:00:43.310Z,658.00
2019-06-26T07:01:43.899Z,658.00
2019-06-26T07:02:44.815Z,658.00
2019-06-26T07:03:44.958Z,662.00
2019-06-26T07:04:45.802Z,661.00
2019-06-26T07:05:45.949Z,665.00
2019-06-26T07:06:46.408Z,667.00
2019-06-26T07:07:46.520Z,668.00
2019-06-26T07:08:46.523Z,670.00
2019-06-26T07:09:47.519Z,670.00
2019-06-26T07:10:46.588Z,673.00
2019-06-26T07:11:48.415Z,676.00
2019-06-26T07:12:48.529Z,694.00
2019-06-26T07:13:49.403Z,692.00
2019-06-26T07:14:49.566Z,691.00
2019-06-26T07:15:49.917Z,689.00
2019-06-26T07:16:49.878Z,687.00
2019-06-26T07:17:51.504Z,687.00
2019-06-26T07:18:52.400Z,687.00
2019-06-26T07:19:53.238Z,687.00
2019-06-26T07:20:53.456Z,687.00
2019-06-26T07:21:54.306Z,687.00
2019-06-26T07:22:55.193Z,688.00
2019-06-26T07:23:56.009Z,687.00
2019-06-26T07:24:56.924Z,687.00
2019-06-26T07:25:57.029Z,687.00
2019-06-26T07:26:57.858Z,688.00
2019-06-26T07:28:01.804Z,687.00
2019-06-26T07:28:58.770Z,687.00
2019-06-26T07:30:00.510Z,687.00
2019-06-26T07:31:01.284Z,687.00
2019-06-26T07:32:02.117Z,689.00
2019-06-26T07:33:02.367Z,687.00
2019-06-26T07:34:02.481Z,687.00
2019-06-26T07:35:02.812Z,687.00
2019-06-26T07:36:01.707Z,689.00
2019-06-26T07:37:01.845Z,689.00
2019-06-26T07:38:03.443Z,689.00
2019-06-26T07:39:03.616Z,691.00
2019-06-26T07:40:04.224Z,691.00
2019-06-26T07:40:13.261Z,691.00
2019-06-26T07:41:15.017Z,690.00
2019-06-26T07:42:15.819Z,690.00
2019-06-26T07:43:16.807Z,691.00
2019-06-26T07:44:16.038Z,691.00
2019-06-26T07:45:17.811Z,691.00
2019-06-26T07:46:18.407Z,692.00
2019-06-26T07:47:23.471Z,692.00
2019-06-26T07:48:18.212Z,691.00
2019-06-26T07:49:18.880Z,691.00
2019-06-26T07:50:20.711Z,691.00
2019-06-26T07:51:20.947Z,692.00
2019-06-26T07:52:21.631Z,693.00
2019-06-26T07:53:22.580Z,693.00
2019-06-26T07:54:22.255Z,693.00
2019-06-26T07:55:23.159Z,693.00
2019-06-26T07:56:24.833Z,692.00
2019-06-26T07:57:23.863Z,692.00
2019-06-26T07:58:25.637Z,692.00
2019-06-26T07:59:25.658Z,692.00
2019-06-26T08:00:26.528Z,692.00
2019-06-26T08:01:27.488Z,692.00
2019-06-26T08:02:27.084Z,693.00
2019-06-26T08:03:28.788Z,693.00
2019-06-26T08:04:29.510Z,692.00
2019-06-26T08:05:30.442Z,694.00
2019-06-26T08:06:31.345Z,693.00
2019-06-26T08:07:31.413Z,692.00
2019-06-26T08:08:31.595Z,692.00
2019-06-26T08:09:32.179Z,692.00
2019-06-26T08:10:32.283Z,692.00
2019-06-26T08:11:31.351Z,692.00
2019-06-26T08:12:32.209Z,692.00
2019-06-26T08:13:33.270Z,692.00
2019-06-26T08:14:33.970Z,692.00
2019-06-26T08:15:34.917Z,693.00
2019-06-26T08:16:35.545Z,693.00
2019-06-26T08:17:35.655Z,693.00
2019-06-26T08:18:34.772Z,694.00
2019-06-26T08:19:36.730Z,694.00
2019-06-26T08:20:51.966Z,694.00
2019-06-26T08:21:37.095Z,694.00
2019-06-26T08:22:37.214Z,694.00
2019-06-26T08:23:39.212Z,697.00
2019-06-26T08:24:38.293Z,698.00
2019-06-26T08:25:38.982Z,698.00
2019-06-26T08:26:40.122Z,699.00
2019-06-26T08:27:40.923Z,703.00
2019-06-26T08:28:41.057Z,706.00
2019-06-26T08:29:41.292Z,705.00
2019-06-26T08:30:42.122Z,706.00
2019-06-26T08:31:42.905Z,705.00
2019-06-26T08:32:43.511Z,708.00
2019-06-26T08:32:52.095Z,708.00
2019-06-26T08:33:53.906Z,708.00
2019-06-26T08:34:54.852Z,706.00
2019-06-26T08:35:54.652Z,706.00
2019-06-26T08:36:54.702Z,705.00
2019-06-26T08:38:09.434Z,705.00
2019-06-26T08:38:56.399Z,704.00
2019-06-26T08:39:58.120Z,705.00
2019-06-26T08:40:58.903Z,706.00
2019-06-26T08:41:58.840Z,705.00
2019-06-26T08:42:59.893Z,704.00
2019-06-26T08:44:00.103Z,705.00
2019-06-26T08:44:59.137Z,705.00
2019-06-26T08:46:00.993Z,705.00
2019-06-26T08:47:01.038Z,705.00
2019-06-26T08:48:16.914Z,706.00
2019-06-26T08:49:03.160Z,706.00
2019-06-26T08:50:02.996Z,706.00
2019-06-26T08:51:02.862Z,706.00
2019-06-26T08:52:02.756Z,708.00
2019-06-26T08:53:03.458Z,708.00
2019-06-26T08:54:05.427Z,708.00
2019-06-26T08:55:05.692Z,706.00
2019-06-26T08:56:05.868Z,706.00
2019-06-26T08:57:04.999Z,708.00
2019-06-26T08:58:06.621Z,706.00
2019-06-26T08:59:07.616Z,708.00
2019-06-26T09:00:07.604Z,709.00
2019-06-26T09:01:07.641Z,709.00
2019-06-26T09:02:07.693Z,709.00
2019-06-26T09:03:08.560Z,709.00
2019-06-26T09:04:09.598Z,710.00
2019-06-26T09:05:10.555Z,710.00
2019-06-26T09:06:10.467Z,710.00
2019-06-26T09:07:12.244Z,709.00
2019-06-26T09:08:13.278Z,709.00
2019-06-26T09:09:13.091Z,712.00
2019-06-26T09:10:14.981Z,712.00
2019-06-26T09:11:15.714Z,710.00
2019-06-26T09:12:16.456Z,710.00
2019-06-26T09:13:17.244Z,712.00
2019-06-26T09:14:18.249Z,711.00
2019-06-26T09:15:18.355Z,711.00
2019-06-26T09:16:18.993Z,712.00
2019-06-26T09:17:19.659Z,711.00
2019-06-26T09:18:34.872Z,712.00
2019-06-26T09:19:20.136Z,713.00
2019-06-26T09:20:21.983Z,712.00
2019-06-26T09:21:22.943Z,710.00
2019-06-26T09:22:23.730Z,710.00
2019-06-26T09:23:24.565Z,709.00
2019-06-26T09:24:25.401Z,708.00
2019-06-26T09:25:26.300Z,708.00
2019-06-26T09:25:34.890Z,708.00
2019-06-26T09:26:36.032Z,708.00
2019-06-26T09:27:36.179Z,708.00
2019-06-26T09:28:36.266Z,705.00
2019-06-26T09:29:37.071Z,706.00
2019-06-26T09:30:37.963Z,706.00
2019-06-26T09:31:38.625Z,705.00
2019-06-26T09:32:39.344Z,705.00
2019-06-26T09:33:39.397Z,705.00
2019-06-26T09:34:39.401Z,706.00
2019-06-26T09:35:40.107Z,706.00
2019-06-26T09:36:40.817Z,705.00
2019-06-26T09:37:40.121Z,706.00
2019-06-26T09:38:42.112Z,706.00
2019-06-26T09:39:42.835Z,706.00
2019-06-26T09:40:43.693Z,703.00
2019-06-26T09:41:43.894Z,701.00
2019-06-26T09:42:44.699Z,704.00
2019-06-26T09:43:45.579Z,704.00
2019-06-26T09:44:46.332Z,703.00
2019-06-26T09:45:46.991Z,703.00
2019-06-26T09:46:47.639Z,703.00
2019-06-26T09:47:47.908Z,702.00
2019-06-26T09:48:53.044Z,702.00
2019-06-26T09:49:47.831Z,702.00
2019-06-26T09:50:49.483Z,702.00
2019-06-26T09:51:49.697Z,702.00
2019-06-26T09:52:50.353Z,702.00
2019-06-26T09:53:50.127Z,702.00
2019-06-26T09:54:51.114Z,702.00
2019-06-26T09:55:51.868Z,701.00
2019-06-26T09:56:52.843Z,701.00
2019-06-26T09:57:53.787Z,698.00
2019-06-26T09:58:54.663Z,702.00
2019-06-26T09:59:53.832Z,703.00
2019-06-26T10:00:55.516Z,703.00
2019-06-26T10:01:55.702Z,702.00
2019-06-26T10:02:55.163Z,701.00
2019-06-26T10:03:57.083Z,702.00
2019-06-26T10:04:57.842Z,701.00
2019-06-26T10:05:58.503Z,697.00
2019-06-26T10:06:59.328Z,697.00
2019-06-26T10:08:00.001Z,694.00
2019-06-26T10:09:00.412Z,696.00
2019-06-26T10:10:00.532Z,694.00
2019-06-26T10:11:02.339Z,694.00
2019-06-26T10:12:01.766Z,693.00
2019-06-26T10:12:10.277Z,693.00
2019-06-26T10:13:11.481Z,694.00
2019-06-26T10:14:12.239Z,693.00
2019-06-26T10:15:13.188Z,693.00
2019-06-26T10:16:13.865Z,694.00
2019-06-26T10:17:14.437Z,694.00
2019-06-26T10:18:15.191Z,694.00
2019-06-26T10:19:15.862Z,694.00
2019-06-26T10:20:16.748Z,696.00
2019-06-26T10:21:17.653Z,696.00
2019-06-26T10:22:18.647Z,697.00
2019-06-26T10:23:18.715Z,696.00
2019-06-26T10:24:19.698Z,696.00
2019-06-26T10:25:19.855Z,696.00
2019-06-26T10:26:20.730Z,694.00
2019-06-26T10:27:21.513Z,693.00
2019-06-26T10:28:21.776Z,694.00
2019-06-26T10:29:22.747Z,694.00
2019-06-26T10:30:23.500Z,694.00
2019-06-26T10:31:24.481Z,694.00
2019-06-26T10:32:25.407Z,697.00
2019-06-26T10:33:26.335Z,698.00
2019-06-26T10:34:26.998Z,701.00
2019-06-26T10:35:27.761Z,702.00
2019-06-26T10:36:28.451Z,702.00
2019-06-26T10:37:29.216Z,702.00
2019-06-26T10:38:29.964Z,702.00
2019-06-26T10:39:30.845Z,701.00
2019-06-26T10:40:31.625Z,696.00
2019-06-26T10:41:32.547Z,696.00
2019-06-26T10:42:32.671Z,696.00
2019-06-26T10:43:33.578Z,696.00
2019-06-26T10:44:34.053Z,696.00
2019-06-26T10:45:36.163Z,697.00
2019-06-26T10:46:33.421Z,698.00
2019-06-26T10:47:34.635Z,697.00
2019-06-26T10:48:34.770Z,696.00
2019-06-26T10:49:35.753Z,694.00
2019-06-26T10:50:47.586Z,693.00
2019-06-26T10:51:35.457Z,692.00
2019-06-26T10:52:37.220Z,694.00
2019-06-26T10:53:38.118Z,692.00
2019-06-26T10:54:39.054Z,693.00
2019-06-26T10:55:39.812Z,693.00
2019-06-26T10:56:40.709Z,692.00
2019-06-26T10:56:49.777Z,693.00
2019-06-26T10:57:50.486Z,693.00
2019-06-26T10:58:52.282Z,696.00
2019-06-26T10:59:55.670Z,696.00
2019-06-26T11:00:52.811Z,696.00
2019-06-26T11:01:54.159Z,701.00
2019-06-26T11:02:54.845Z,697.00
2019-06-26T11:03:55.650Z,696.00
2019-06-26T11:04:57.514Z,694.00
2019-06-26T11:05:57.246Z,693.00
2019-06-26T11:06:58.492Z,694.00
2019-06-26T11:07:58.074Z,694.00
2019-06-26T11:08:59.984Z,693.00
2019-06-26T11:10:00.729Z,692.00
2019-06-26T11:11:01.490Z,692.00
2019-06-26T11:12:02.641Z,692.00
2019-06-26T11:13:01.674Z,691.00
2019-06-26T11:14:02.403Z,691.00
2019-06-26T11:15:03.223Z,690.00
2019-06-26T11:16:03.117Z,690.00
2019-06-26T11:17:04.964Z,690.00
2019-06-26T11:18:05.199Z,690.00
2019-06-26T11:19:05.385Z,691.00
2019-06-26T11:20:05.624Z,692.00
2019-06-26T11:21:05.706Z,691.00
2019-06-26T11:22:06.633Z,691.00
2019-06-26T11:23:07.619Z,689.00
2019-06-26T11:24:07.687Z,688.00
2019-06-26T11:25:07.724Z,687.00
2019-06-26T11:26:08.623Z,687.00
2019-06-26T11:27:09.533Z,686.00
2019-06-26T11:28:09.740Z,687.00
2019-06-26T11:29:10.003Z,687.00
2019-06-26T11:30:10.173Z,687.00
2019-06-26T11:31:11.054Z,687.00
2019-06-26T11:32:11.235Z,686.00
2019-06-26T11:33:12.183Z,687.00
2019-06-26T11:34:12.379Z,687.00
2019-06-26T11:35:13.402Z,691.00
2019-06-26T11:36:13.429Z,696.00
2019-06-26T11:37:13.433Z,696.00
2019-06-26T11:38:13.572Z,692.00
2019-06-26T11:39:13.824Z,692.00
2019-06-26T11:40:14.292Z,692.00
2019-06-26T11:41:14.593Z,691.00
2019-06-26T11:42:15.006Z,691.00
2019-06-26T11:43:15.925Z,692.00
2019-06-26T11:44:15.998Z,692.00
2019-06-26T11:44:24.566Z,691.00
2019-06-26T11:45:24.769Z,690.00
2019-06-26T11:46:25.844Z,691.00
2019-06-26T11:47:26.217Z,691.00
2019-06-26T11:48:26.521Z,691.00
2019-06-26T11:49:26.766Z,690.00
2019-06-26T11:50:27.600Z,689.00
2019-06-26T11:51:28.461Z,687.00
2019-06-26T11:52:29.342Z,686.00
2019-06-26T11:53:29.581Z,686.00
2019-06-26T11:54:30.305Z,686.00
2019-06-26T11:55:30.358Z,685.00
2019-06-26T11:56:30.909Z,687.00
2019-06-26T11:57:30.968Z,687.00
2019-06-26T11:58:30.126Z,687.00
2019-06-26T11:59:31.159Z,686.00
2019-06-26T12:00:31.491Z,686.00
2019-06-26T12:01:31.606Z,686.00
2019-06-26T12:02:31.693Z,686.00
2019-06-26T12:03:31.881Z,686.00
2019-06-26T12:04:31.978Z,687.00
2019-06-26T12:05:32.265Z,686.00
2019-06-26T12:06:32.771Z,686.00
2019-06-26T12:07:31.825Z,686.00
2019-06-26T12:08:33.035Z,686.00
2019-06-26T12:09:33.387Z,686.00
2019-06-26T12:10:33.720Z,686.00
2019-06-26T12:11:34.055Z,686.00
2019-06-26T12:12:34.492Z,685.00
2019-06-26T12:13:34.673Z,685.00
2019-06-26T12:14:34.852Z,685.00
2019-06-26T12:15:35.403Z,685.00
2019-06-26T12:16:35.615Z,689.00
2019-06-26T12:17:35.824Z,690.00
2019-06-26T12:18:35.985Z,688.00
2019-06-26T12:19:36.222Z,687.00
2019-06-26T12:20:36.254Z,687.00
2019-06-26T12:21:36.397Z,687.00